Corpus Christi, Texas
Current Conditions -  °F | °C
As of 10:51 PM on Tuesday 21 Oct 2014 (Local Time) from KCRP Reporting Station
Broken Clouds Broken Clouds  
Wind Chill: 74°   Ceiling: 20000
Heat Index: 74°   Visibility: 10mi
Dew Point: 67°   Wind: 7mph
Humidity: 79%   Direction: 80°E
Pressure: 30"   Gusts: NA
Location:  27.8°N, 97.4°W
Report Text: KCRP 220351Z 08006KT 10SM FEW020 BKN200 23/19 A3000 RMK AO2 SLP158 T02330194
Loading
Personal Weather Stations






























Interactive Weather Map
Tropical Storm Tracking
New forecast layout! Learn more

10-Day Weather Forecast

Advertisements
Track Severe Weather on mobile